sensor_id;sensor_type;location;lat;lon;timestamp;P1;durP1;ratioP1;P2;durP2;ratioP2
59207;SDS011;44977;53.132;6.408;2022-08-04T00:02:02;10.32;;;3.55;;
59207;SDS011;44977;53.132;6.408;2022-08-04T00:07:13;10.07;;;3.30;;
59207;SDS011;44977;53.132;6.408;2022-08-04T00:12:18;10.40;;;3.58;;
59207;SDS011;44977;53.132;6.408;2022-08-04T00:17:25;9.25;;;3.03;;
59207;SDS011;44977;53.132;6.408;2022-08-04T00:27:33;9.85;;;3.55;;
59207;SDS011;44977;53.132;6.408;2022-08-04T00:32:34;11.30;;;3.08;;
59207;SDS011;44977;53.132;6.408;2022-08-04T00:37:38;10.13;;;2.95;;
59207;SDS011;44977;53.132;6.408;2022-08-04T00:43:02;10.60;;;3.00;;
59207;SDS011;44977;53.132;6.408;2022-08-04T00:48:13;7.75;;;2.92;;
59207;SDS011;44977;53.132;6.408;2022-08-04T01:04:44;7.18;;;3.15;;
59207;SDS011;44977;53.132;6.408;2022-08-04T01:30:17;8.73;;;3.78;;
59207;SDS011;44977;53.132;6.408;2022-08-04T01:35:28;9.40;;;3.20;;
59207;SDS011;44977;53.132;6.408;2022-08-04T01:40:29;10.88;;;3.92;;
59207;SDS011;44977;53.132;6.408;2022-08-04T01:45:31;8.77;;;3.83;;
59207;SDS011;44977;53.132;6.408;2022-08-04T01:50:36;9.13;;;3.60;;
59207;SDS011;44977;53.132;6.408;2022-08-04T01:55:38;10.13;;;4.10;;
59207;SDS011;44977;53.132;6.408;2022-08-04T02:00:41;9.95;;;4.18;;
59207;SDS011;44977;53.132;6.408;2022-08-04T02:05:58;9.95;;;3.70;;
59207;SDS011;44977;53.132;6.408;2022-08-04T02:11:19;13.43;;;4.10;;
59207;SDS011;44977;53.132;6.408;2022-08-04T02:21:31;12.93;;;4.35;;
59207;SDS011;44977;53.132;6.408;2022-08-04T02:26:34;10.68;;;4.20;;
59207;SDS011;44977;53.132;6.408;2022-08-04T02:31:42;12.07;;;4.75;;
59207;SDS011;44977;53.132;6.408;2022-08-04T02:37:12;11.93;;;4.10;;
59207;SDS011;44977;53.132;6.408;2022-08-04T02:42:16;12.23;;;5.00;;
59207;SDS011;44977;53.132;6.408;2022-08-04T02:47:18;10.75;;;4.53;;
59207;SDS011;44977;53.132;6.408;2022-08-04T02:52:20;9.98;;;4.22;;
59207;SDS011;44977;53.132;6.408;2022-08-04T02:57:25;13.27;;;4.50;;
59207;SDS011;44977;53.132;6.408;2022-08-04T03:02:33;10.10;;;4.32;;
59207;SDS011;44977;53.132;6.408;2022-08-04T03:09:04;10.88;;;4.60;;
59207;SDS011;44977;53.132;6.408;2022-08-04T03:46:33;10.38;;;4.72;;
59207;SDS011;44977;53.132;6.408;2022-08-04T03:51:47;11.82;;;4.70;;
59207;SDS011;44977;53.132;6.408;2022-08-04T04:02:43;10.70;;;4.60;;
59207;SDS011;44977;53.132;6.408;2022-08-04T04:08:04;10.43;;;4.80;;
59207;SDS011;44977;53.132;6.408;2022-08-04T04:13:40;10.13;;;4.47;;
59207;SDS011;44977;53.132;6.408;2022-08-04T04:19:13;11.00;;;4.60;;
59207;SDS011;44977;53.132;6.408;2022-08-04T04:45:54;12.40;;;4.68;;
59207;SDS011;44977;53.132;6.408;2022-08-04T05:06:46;10.48;;;4.53;;
59207;SDS011;44977;53.132;6.408;2022-08-04T05:12:13;12.82;;;5.57;;
59207;SDS011;44977;53.132;6.408;2022-08-04T05:17:39;12.05;;;5.60;;
59207;SDS011;44977;53.132;6.408;2022-08-04T05:22:42;12.77;;;5.07;;
59207;SDS011;44977;53.132;6.408;2022-08-04T05:27:49;10.00;;;5.20;;
59207;SDS011;44977;53.132;6.408;2022-08-04T05:32:57;10.50;;;4.88;;
59207;SDS011;44977;53.132;6.408;2022-08-04T05:38:03;14.05;;;5.60;;
59207;SDS011;44977;53.132;6.408;2022-08-04T05:43:05;12.20;;;5.72;;
59207;SDS011;44977;53.132;6.408;2022-08-04T05:48:06;11.57;;;6.20;;
59207;SDS011;44977;53.132;6.408;2022-08-04T05:53:08;13.38;;;6.70;;
59207;SDS011;44977;53.132;6.408;2022-08-04T05:58:10;11.43;;;6.15;;
59207;SDS011;44977;53.132;6.408;2022-08-04T06:03:12;12.65;;;6.25;;
59207;SDS011;44977;53.132;6.408;2022-08-04T06:08:14;12.77;;;6.15;;
59207;SDS011;44977;53.132;6.408;2022-08-04T06:13:16;11.77;;;6.68;;
59207;SDS011;44977;53.132;6.408;2022-08-04T06:18:19;12.60;;;6.72;;
59207;SDS011;44977;53.132;6.408;2022-08-04T06:23:22;10.60;;;6.18;;
59207;SDS011;44977;53.132;6.408;2022-08-04T06:28:29;14.23;;;6.22;;
59207;SDS011;44977;53.132;6.408;2022-08-04T06:33:30;12.00;;;5.85;;
59207;SDS011;44977;53.132;6.408;2022-08-04T06:38:35;11.00;;;5.68;;
59207;SDS011;44977;53.132;6.408;2022-08-04T06:43:36;13.13;;;5.55;;
59207;SDS011;44977;53.132;6.408;2022-08-04T06:48:38;12.00;;;4.72;;
59207;SDS011;44977;53.132;6.408;2022-08-04T06:53:39;9.50;;;4.50;;
59207;SDS011;44977;53.132;6.408;2022-08-04T06:58:39;10.05;;;4.30;;
59207;SDS011;44977;53.132;6.408;2022-08-04T07:03:41;8.43;;;4.30;;
59207;SDS011;44977;53.132;6.408;2022-08-04T07:08:42;9.45;;;3.70;;
59207;SDS011;44977;53.132;6.408;2022-08-04T07:13:43;10.27;;;4.05;;
59207;SDS011;44977;53.132;6.408;2022-08-04T07:18:45;9.20;;;3.67;;
59207;SDS011;44977;53.132;6.408;2022-08-04T07:23:46;9.45;;;3.50;;
59207;SDS011;44977;53.132;6.408;2022-08-04T07:28:47;10.15;;;3.42;;
59207;SDS011;44977;53.132;6.408;2022-08-04T07:33:48;10.45;;;4.10;;
59207;SDS011;44977;53.132;6.408;2022-08-04T07:38:49;10.15;;;4.20;;
59207;SDS011;44977;53.132;6.408;2022-08-04T07:43:50;10.38;;;4.15;;
59207;SDS011;44977;53.132;6.408;2022-08-04T07:48:52;13.90;;;5.35;;
59207;SDS011;44977;53.132;6.408;2022-08-04T07:53:53;11.10;;;5.63;;
59207;SDS011;44977;53.132;6.408;2022-08-04T07:58:55;12.27;;;5.40;;
59207;SDS011;44977;53.132;6.408;2022-08-04T08:03:56;9.95;;;4.65;;
59207;SDS011;44977;53.132;6.408;2022-08-04T08:08:57;13.02;;;6.10;;
59207;SDS011;44977;53.132;6.408;2022-08-04T08:14:00;10.85;;;5.90;;
59207;SDS011;44977;53.132;6.408;2022-08-04T08:19:01;11.38;;;5.30;;
59207;SDS011;44977;53.132;6.408;2022-08-04T08:24:03;8.80;;;4.90;;
59207;SDS011;44977;53.132;6.408;2022-08-04T08:29:04;12.90;;;5.15;;
59207;SDS011;44977;53.132;6.408;2022-08-04T08:34:06;11.73;;;5.40;;
59207;SDS011;44977;53.132;6.408;2022-08-04T09:00:27;9.00;;;5.23;;
59207;SDS011;44977;53.132;6.408;2022-08-04T09:10:49;12.45;;;6.25;;
59207;SDS011;44977;53.132;6.408;2022-08-04T09:31:36;9.73;;;3.55;;
59207;SDS011;44977;53.132;6.408;2022-08-04T10:03:47;9.85;;;2.65;;
59207;SDS011;44977;53.132;6.408;2022-08-04T10:09:07;10.05;;;2.60;;
59207;SDS011;44977;53.132;6.408;2022-08-04T10:14:37;9.07;;;2.22;;
59207;SDS011;44977;53.132;6.408;2022-08-04T10:19:49;9.18;;;2.03;;
59207;SDS011;44977;53.132;6.408;2022-08-04T10:30:07;9.82;;;2.95;;
59207;SDS011;44977;53.132;6.408;2022-08-04T10:41:05;8.57;;;2.40;;
59207;SDS011;44977;53.132;6.408;2022-08-04T10:45:51;8.88;;;2.53;;
59207;SDS011;44977;53.132;6.408;2022-08-04T10:56:18;8.82;;;3.15;;
59207;SDS011;44977;53.132;6.408;2022-08-04T11:01:32;10.27;;;3.20;;
59207;SDS011;44977;53.132;6.408;2022-08-04T11:06:37;6.05;;;1.90;;
59207;SDS011;44977;53.132;6.408;2022-08-04T11:11:46;8.55;;;2.05;;
59207;SDS011;44977;53.132;6.408;2022-08-04T11:17:04;5.43;;;1.75;;
59207;SDS011;44977;53.132;6.408;2022-08-04T11:22:08;5.07;;;1.80;;
59207;SDS011;44977;53.132;6.408;2022-08-04T11:27:27;4.63;;;1.70;;
59207;SDS011;44977;53.132;6.408;2022-08-04T11:32:54;7.75;;;1.67;;
59207;SDS011;44977;53.132;6.408;2022-08-04T11:38:24;7.15;;;1.40;;
59207;SDS011;44977;53.132;6.408;2022-08-04T11:49:02;3.63;;;1.40;;
59207;SDS011;44977;53.132;6.408;2022-08-04T11:54:14;4.50;;;1.60;;
59207;SDS011;44977;53.132;6.408;2022-08-04T11:59:16;12.02;;;2.30;;
59207;SDS011;44977;53.132;6.408;2022-08-04T12:09:57;3.53;;;1.60;;
59207;SDS011;44977;53.132;6.408;2022-08-04T12:20:42;4.18;;;1.50;;
59207;SDS011;44977;53.132;6.408;2022-08-04T12:25:49;4.40;;;1.35;;
59207;SDS011;44977;53.132;6.408;2022-08-04T12:30:58;4.63;;;1.67;;
59207;SDS011;44977;53.132;6.408;2022-08-04T12:36:11;4.53;;;1.40;;
59207;SDS011;44977;53.132;6.408;2022-08-04T12:41:24;4.45;;;1.70;;
59207;SDS011;44977;53.132;6.408;2022-08-04T12:46:28;5.75;;;1.60;;
59207;SDS011;44977;53.132;6.408;2022-08-04T12:51:38;7.03;;;1.70;;
59207;SDS011;44977;53.132;6.408;2022-08-04T12:56:42;7.57;;;1.50;;
59207;SDS011;44977;53.132;6.408;2022-08-04T13:01:46;4.28;;;1.48;;
59207;SDS011;44977;53.132;6.408;2022-08-04T13:06:52;4.88;;;1.60;;
59207;SDS011;44977;53.132;6.408;2022-08-04T13:12:01;4.05;;;1.30;;
59207;SDS011;44977;53.132;6.408;2022-08-04T13:17:04;4.38;;;1.45;;
59207;SDS011;44977;53.132;6.408;2022-08-04T13:22:05;4.47;;;1.20;;
59207;SDS011;44977;53.132;6.408;2022-08-04T13:27:08;3.17;;;1.30;;
59207;SDS011;44977;53.132;6.408;2022-08-04T13:32:16;3.83;;;1.38;;
59207;SDS011;44977;53.132;6.408;2022-08-04T13:37:23;4.82;;;1.42;;
59207;SDS011;44977;53.132;6.408;2022-08-04T13:42:25;5.00;;;1.30;;
59207;SDS011;44977;53.132;6.408;2022-08-04T13:47:28;2.92;;;1.20;;
59207;SDS011;44977;53.132;6.408;2022-08-04T13:52:31;3.80;;;1.48;;
59207;SDS011;44977;53.132;6.408;2022-08-04T13:57:35;2.60;;;1.20;;
59207;SDS011;44977;53.132;6.408;2022-08-04T14:02:45;4.85;;;1.40;;
59207;SDS011;44977;53.132;6.408;2022-08-04T14:07:50;2.63;;;1.02;;
59207;SDS011;44977;53.132;6.408;2022-08-04T14:12:59;3.60;;;1.17;;
59207;SDS011;44977;53.132;6.408;2022-08-04T14:18:23;5.75;;;1.70;;
59207;SDS011;44977;53.132;6.408;2022-08-04T14:23:52;6.38;;;1.63;;
59207;SDS011;44977;53.132;6.408;2022-08-04T14:28:55;3.95;;;1.25;;
59207;SDS011;44977;53.132;6.408;2022-08-04T14:34:10;5.35;;;1.58;;
59207;SDS011;44977;53.132;6.408;2022-08-04T14:39:38;4.47;;;1.40;;
59207;SDS011;44977;53.132;6.408;2022-08-04T14:44:53;9.23;;;2.03;;
59207;SDS011;44977;53.132;6.408;2022-08-04T14:49:55;6.68;;;2.42;;
59207;SDS011;44977;53.132;6.408;2022-08-04T14:54:56;7.85;;;2.30;;
59207;SDS011;44977;53.132;6.408;2022-08-04T14:59:57;9.35;;;2.38;;
59207;SDS011;44977;53.132;6.408;2022-08-04T15:04:57;7.47;;;2.30;;
59207;SDS011;44977;53.132;6.408;2022-08-04T15:09:59;9.25;;;2.75;;
59207;SDS011;44977;53.132;6.408;2022-08-04T15:15:00;7.85;;;2.80;;
59207;SDS011;44977;53.132;6.408;2022-08-04T15:20:01;7.47;;;2.38;;
59207;SDS011;44977;53.132;6.408;2022-08-04T15:25:02;5.07;;;1.90;;
59207;SDS011;44977;53.132;6.408;2022-08-04T15:30:07;5.75;;;1.73;;
59207;SDS011;44977;53.132;6.408;2022-08-04T15:35:16;2.92;;;1.23;;
59207;SDS011;44977;53.132;6.408;2022-08-04T15:45:25;6.10;;;2.08;;
59207;SDS011;44977;53.132;6.408;2022-08-04T15:50:28;6.60;;;2.40;;
59207;SDS011;44977;53.132;6.408;2022-08-04T15:55:30;4.70;;;2.00;;
59207;SDS011;44977;53.132;6.408;2022-08-04T16:05:50;3.42;;;1.48;;
59207;SDS011;44977;53.132;6.408;2022-08-04T16:10:51;4.55;;;1.48;;
59207;SDS011;44977;53.132;6.408;2022-08-04T16:15:53;4.43;;;1.50;;
59207;SDS011;44977;53.132;6.408;2022-08-04T16:20:57;5.10;;;1.60;;
59207;SDS011;44977;53.132;6.408;2022-08-04T16:26:01;5.82;;;1.80;;
59207;SDS011;44977;53.132;6.408;2022-08-04T16:31:02;4.65;;;1.67;;
59207;SDS011;44977;53.132;6.408;2022-08-04T16:36:07;4.68;;;1.70;;
59207;SDS011;44977;53.132;6.408;2022-08-04T16:41:11;6.35;;;1.67;;
59207;SDS011;44977;53.132;6.408;2022-08-04T16:46:12;4.38;;;1.70;;
59207;SDS011;44977;53.132;6.408;2022-08-04T16:51:41;4.63;;;1.30;;
59207;SDS011;44977;53.132;6.408;2022-08-04T16:56:42;5.15;;;1.65;;
59207;SDS011;44977;53.132;6.408;2022-08-04T17:01:47;5.28;;;1.63;;
59207;SDS011;44977;53.132;6.408;2022-08-04T17:06:49;6.00;;;1.80;;
59207;SDS011;44977;53.132;6.408;2022-08-04T17:11:57;5.10;;;1.40;;
59207;SDS011;44977;53.132;6.408;2022-08-04T17:17:01;4.82;;;1.42;;
59207;SDS011;44977;53.132;6.408;2022-08-04T17:22:04;6.18;;;1.48;;
59207;SDS011;44977;53.132;6.408;2022-08-04T17:27:08;6.80;;;1.95;;
59207;SDS011;44977;53.132;6.408;2022-08-04T17:32:15;4.85;;;1.63;;
59207;SDS011;44977;53.132;6.408;2022-08-04T17:37:20;5.22;;;1.52;;
59207;SDS011;44977;53.132;6.408;2022-08-04T17:42:33;6.15;;;1.48;;
59207;SDS011;44977;53.132;6.408;2022-08-04T17:47:50;5.00;;;1.77;;
59207;SDS011;44977;53.132;6.408;2022-08-04T17:52:58;5.60;;;1.70;;
59207;SDS011;44977;53.132;6.408;2022-08-04T18:03:21;7.22;;;1.88;;
59207;SDS011;44977;53.132;6.408;2022-08-04T18:08:23;4.45;;;1.63;;
59207;SDS011;44977;53.132;6.408;2022-08-04T18:13:25;5.88;;;2.05;;
59207;SDS011;44977;53.132;6.408;2022-08-04T18:18:27;6.93;;;2.00;;
59207;SDS011;44977;53.132;6.408;2022-08-04T18:23:27;6.60;;;2.40;;
59207;SDS011;44977;53.132;6.408;2022-08-04T18:28:28;6.72;;;2.38;;
59207;SDS011;44977;53.132;6.408;2022-08-04T18:33:29;5.75;;;2.10;;
59207;SDS011;44977;53.132;6.408;2022-08-04T18:38:30;5.63;;;2.00;;
59207;SDS011;44977;53.132;6.408;2022-08-04T18:43:31;6.22;;;2.30;;
59207;SDS011;44977;53.132;6.408;2022-08-04T18:48:31;7.35;;;2.13;;
59207;SDS011;44977;53.132;6.408;2022-08-04T18:53:32;5.82;;;1.90;;
59207;SDS011;44977;53.132;6.408;2022-08-04T18:58:33;7.32;;;2.45;;
59207;SDS011;44977;53.132;6.408;2022-08-04T19:03:33;8.02;;;2.42;;
59207;SDS011;44977;53.132;6.408;2022-08-04T19:08:35;7.38;;;1.98;;
59207;SDS011;44977;53.132;6.408;2022-08-04T19:13:36;5.05;;;1.80;;
59207;SDS011;44977;53.132;6.408;2022-08-04T19:18:37;4.93;;;2.15;;
59207;SDS011;44977;53.132;6.408;2022-08-04T19:23:37;6.50;;;1.90;;
59207;SDS011;44977;53.132;6.408;2022-08-04T19:28:38;6.13;;;2.10;;
59207;SDS011;44977;53.132;6.408;2022-08-04T19:33:39;6.90;;;1.80;;
59207;SDS011;44977;53.132;6.408;2022-08-04T19:38:40;5.70;;;2.10;;
59207;SDS011;44977;53.132;6.408;2022-08-04T19:43:42;6.88;;;2.00;;
59207;SDS011;44977;53.132;6.408;2022-08-04T19:48:43;6.05;;;1.85;;
59207;SDS011;44977;53.132;6.408;2022-08-04T19:53:44;6.70;;;1.90;;
59207;SDS011;44977;53.132;6.408;2022-08-04T19:58:44;7.80;;;2.33;;
59207;SDS011;44977;53.132;6.408;2022-08-04T20:03:45;6.35;;;2.13;;
59207;SDS011;44977;53.132;6.408;2022-08-04T20:08:46;6.75;;;2.00;;
59207;SDS011;44977;53.132;6.408;2022-08-04T20:13:46;8.57;;;2.40;;
59207;SDS011;44977;53.132;6.408;2022-08-04T20:18:47;9.30;;;2.22;;
59207;SDS011;44977;53.132;6.408;2022-08-04T20:23:48;7.72;;;2.70;;
59207;SDS011;44977;53.132;6.408;2022-08-04T20:28:49;8.05;;;2.70;;
59207;SDS011;44977;53.132;6.408;2022-08-04T20:33:49;6.72;;;2.40;;
59207;SDS011;44977;53.132;6.408;2022-08-04T20:38:50;9.90;;;2.70;;
59207;SDS011;44977;53.132;6.408;2022-08-04T20:43:53;7.65;;;2.40;;
59207;SDS011;44977;53.132;6.408;2022-08-04T20:48:54;7.03;;;2.33;;
59207;SDS011;44977;53.132;6.408;2022-08-04T20:53:54;8.23;;;2.42;;
59207;SDS011;44977;53.132;6.408;2022-08-04T20:58:55;6.95;;;2.22;;
59207;SDS011;44977;53.132;6.408;2022-08-04T21:03:56;7.90;;;2.80;;
59207;SDS011;44977;53.132;6.408;2022-08-04T21:09:16;7.22;;;2.53;;
59207;SDS011;44977;53.132;6.408;2022-08-04T21:14:17;9.27;;;2.67;;
59207;SDS011;44977;53.132;6.408;2022-08-04T21:19:17;9.05;;;2.90;;
59207;SDS011;44977;53.132;6.408;2022-08-04T21:24:19;8.75;;;3.00;;
59207;SDS011;44977;53.132;6.408;2022-08-04T21:29:20;7.40;;;2.97;;
59207;SDS011;44977;53.132;6.408;2022-08-04T21:34:22;6.82;;;2.60;;
59207;SDS011;44977;53.132;6.408;2022-08-04T21:39:22;8.88;;;2.65;;
59207;SDS011;44977;53.132;6.408;2022-08-04T21:44:23;8.63;;;2.42;;
59207;SDS011;44977;53.132;6.408;2022-08-04T21:49:24;6.43;;;2.38;;
59207;SDS011;44977;53.132;6.408;2022-08-04T21:54:24;6.53;;;2.20;;
59207;SDS011;44977;53.132;6.408;2022-08-04T21:59:25;5.93;;;2.17;;
59207;SDS011;44977;53.132;6.408;2022-08-04T22:04:26;7.55;;;2.30;;
59207;SDS011;44977;53.132;6.408;2022-08-04T22:09:27;6.10;;;1.90;;
59207;SDS011;44977;53.132;6.408;2022-08-04T22:14:28;7.82;;;2.35;;
59207;SDS011;44977;53.132;6.408;2022-08-04T22:19:29;7.45;;;2.28;;
59207;SDS011;44977;53.132;6.408;2022-08-04T22:24:31;6.63;;;2.10;;
59207;SDS011;44977;53.132;6.408;2022-08-04T22:29:31;5.47;;;2.10;;
59207;SDS011;44977;53.132;6.408;2022-08-04T22:34:32;7.53;;;2.40;;
59207;SDS011;44977;53.132;6.408;2022-08-04T22:39:38;5.97;;;2.07;;
59207;SDS011;44977;53.132;6.408;2022-08-04T22:44:38;7.53;;;2.55;;
59207;SDS011;44977;53.132;6.408;2022-08-04T22:49:39;6.28;;;2.55;;
59207;SDS011;44977;53.132;6.408;2022-08-04T22:54:40;8.20;;;2.50;;
59207;SDS011;44977;53.132;6.408;2022-08-04T22:59:40;7.95;;;2.65;;
59207;SDS011;44977;53.132;6.408;2022-08-04T23:04:41;8.55;;;2.85;;
59207;SDS011;44977;53.132;6.408;2022-08-04T23:09:42;6.53;;;2.30;;
59207;SDS011;44977;53.132;6.408;2022-08-04T23:14:43;8.27;;;2.22;;
59207;SDS011;44977;53.132;6.408;2022-08-04T23:19:45;6.20;;;2.10;;
59207;SDS011;44977;53.132;6.408;2022-08-04T23:24:45;8.75;;;2.50;;
59207;SDS011;44977;53.132;6.408;2022-08-04T23:29:46;6.63;;;2.10;;
59207;SDS011;44977;53.132;6.408;2022-08-04T23:34:46;7.55;;;2.40;;
59207;SDS011;44977;53.132;6.408;2022-08-04T23:39:47;7.43;;;2.10;;
59207;SDS011;44977;53.132;6.408;2022-08-04T23:44:48;7.45;;;2.40;;
59207;SDS011;44977;53.132;6.408;2022-08-04T23:49:49;8.02;;;2.50;;
59207;SDS011;44977;53.132;6.408;2022-08-04T23:54:50;7.60;;;2.53;;
59207;SDS011;44977;53.132;6.408;2022-08-04T23:59:51;7.35;;;2.42;;
